Time;durP1;ratioP1;P1;durP2;ratioP2;P2;SDS_P1;SDS_P2;PMS_P1;PMS_P2;Temp;Humidity;BMP_temperature;BMP_pressure;BME280_temperature;BME280_humidity;BME280_pressure;Samples;Min_cycle;Max_cycle;Signal;HPM_P1;HPM_P2
2021/12/31 00:01:50;;;;;;;7.03;1.90;;;;;;;13.54;100.00;101880.78;5275837;28;20405;-73
2021/12/31 00:04:20;;;;;;;6.32;1.70;;;;;;;13.54;100.00;101880.78;5279534;28;20028;-73
2021/12/31 00:06:51;;;;;;;7.15;2.00;;;;;;;13.57;100.00;101883.19;5276852;28;20530;-73
2021/12/31 00:09:21;;;;;;;6.85;1.85;;;;;;;13.59;100.00;101873.06;5279621;28;20476;-73
2021/12/31 00:11:52;;;;;;;5.55;2.00;;;;;;;13.57;100.00;101880.50;5264644;28;20432;-73
2021/12/31 00:14:22;;;;;;;7.30;1.77;;;;;;;13.53;100.00;101886.34;5278340;28;20542;-73
2021/12/31 00:16:53;;;;;;;5.30;1.98;;;;;;;13.52;100.00;101880.13;5264639;28;20449;-73
2021/12/31 00:19:25;;;;;;;7.18;1.95;;;;;;;13.51;100.00;101881.13;5272831;28;20034;-73
2021/12/31 00:21:57;;;;;;;16.52;2.55;;;;;;;13.50;100.00;101874.03;5282883;28;20481;-73
2021/12/31 00:24:27;;;;;;;10.40;2.28;;;;;;;13.46;100.00;101867.28;5274391;28;20032;-73
2021/12/31 00:26:58;;;;;;;4.13;2.40;;;;;;;13.42;100.00;101876.69;5281735;28;20023;-73
2021/12/31 00:29:28;;;;;;;6.60;1.83;;;;;;;13.44;100.00;101878.22;5264591;28;20036;-73
2021/12/31 00:31:59;;;;;;;11.93;2.22;;;;;;;13.43;100.00;101871.13;5278005;28;20362;-73
2021/12/31 00:34:29;;;;;;;5.25;1.70;;;;;;;13.45;100.00;101869.16;5276690;28;20058;-73
2021/12/31 00:37:00;;;;;;;5.63;1.60;;;;;;;13.43;100.00;101867.59;5269931;28;20549;-73
2021/12/31 00:39:30;;;;;;;5.90;2.15;;;;;;;13.41;100.00;101872.31;5271380;28;20038;-74
2021/12/31 00:42:01;;;;;;;6.78;1.60;;;;;;;13.38;100.00;101880.72;5271524;28;20028;-73
2021/12/31 00:44:31;;;;;;;6.65;2.00;;;;;;;13.37;100.00;101882.56;5269654;28;20031;-73
2021/12/31 00:47:02;;;;;;;4.70;1.90;;;;;;;13.35;100.00;101881.03;5272603;28;20044;-73
2021/12/31 00:49:32;;;;;;;6.68;2.10;;;;;;;13.33;100.00;101885.72;5267156;27;20034;-73
2021/12/31 00:52:03;;;;;;;6.35;1.65;;;;;;;13.34;100.00;101887.41;5267683;28;20465;-73
2021/12/31 00:54:35;;;;;;;8.88;1.90;;;;;;;13.34;100.00;101885.56;5268065;28;20027;-74
2021/12/31 00:57:06;;;;;;;5.47;2.13;;;;;;;13.35;100.00;101883.72;5285183;28;20028;-74
2021/12/31 00:59:37;;;;;;;3.95;1.73;;;;;;;13.34;100.00;101892.81;5270739;28;20151;-73
2021/12/31 01:02:10;;;;;;;5.60;1.95;;;;;;;13.35;100.00;101889.94;5271663;28;20103;-73
2021/12/31 01:04:41;;;;;;;12.20;2.20;;;;;;;13.35;100.00;101889.09;5284497;28;20051;-73
2021/12/31 01:07:12;;;;;;;14.45;2.15;;;;;;;13.32;100.00;101879.50;5274925;28;20063;-74
2021/12/31 01:09:42;;;;;;;6.35;1.65;;;;;;;13.31;100.00;101874.28;5284391;27;20476;-73
2021/12/31 01:12:14;;;;;;;6.25;1.83;;;;;;;13.31;100.00;101866.19;5285286;28;20053;-74
2021/12/31 01:15:03;;;;;;;6.03;1.90;;;;;;;13.33;100.00;101875.78;5274439;28;20024;-73
2021/12/31 01:20:22;;;;;;;8.77;1.92;;;;;;;13.35;100.00;101878.31;5267391;28;20024;-73
2021/12/31 01:22:53;;;;;;;10.63;2.33;;;;;;;13.33;100.00;101865.03;5273822;28;20490;-73
2021/12/31 01:25:23;;;;;;;9.73;2.55;;;;;;;13.35;100.00;101867.53;5284016;28;20031;-73
2021/12/31 01:27:54;;;;;;;11.88;2.35;;;;;;;13.35;100.00;101864.84;5284420;28;20096;-73
2021/12/31 01:30:24;;;;;;;13.77;3.67;;;;;;;13.38;100.00;101865.38;5269937;28;20051;-73
2021/12/31 01:32:55;;;;;;;6.38;1.85;;;;;;;13.38;100.00;101867.25;5270360;28;20115;-72
2021/12/31 01:35:26;;;;;;;11.05;2.08;;;;;;;13.36;100.00;101872.81;5262798;28;20020;-73
2021/12/31 01:37:56;;;;;;;4.60;2.03;;;;;;;13.33;100.00;101866.88;5278020;28;20506;-73
2021/12/31 01:40:27;;;;;;;6.65;2.00;;;;;;;13.33;100.00;101875.78;5269034;28;20020;-73
2021/12/31 01:42:57;;;;;;;11.82;2.72;;;;;;;13.31;100.00;101867.03;5265200;28;20501;-73
2021/12/31 01:45:32;;;;;;;8.82;2.33;;;;;;;13.26;100.00;101866.69;5284090;28;20027;-73
2021/12/31 01:48:07;;;;;;;10.00;2.38;;;;;;;13.23;100.00;101875.06;5279673;28;20706;-74
2021/12/31 01:50:39;;;;;;;9.75;2.00;;;;;;;13.28;100.00;101871.91;5276482;28;20028;-74
2021/12/31 01:53:12;;;;;;;7.05;2.33;;;;;;;13.28;100.00;101869.19;5267444;28;20385;-74
2021/12/31 01:55:43;;;;;;;9.95;2.05;;;;;;;13.26;100.00;101874.75;5262881;28;20089;-73
2021/12/31 01:58:18;;;;;;;6.75;2.17;;;;;;;13.26;100.00;101869.38;5271533;28;20032;-74
2021/12/31 02:00:49;;;;;;;11.73;2.33;;;;;;;13.27;100.00;101875.59;5270210;28;20034;-74
2021/12/31 02:03:21;;;;;;;6.38;2.28;;;;;;;13.28;100.00;101866.50;5273309;28;20024;-74
2021/12/31 02:05:52;;;;;;;5.93;1.80;;;;;;;13.29;100.00;101877.13;5276655;28;20081;-74
2021/12/31 02:08:22;;;;;;;6.47;1.90;;;;;;;13.29;100.00;101866.34;5266750;28;20461;-74
2021/12/31 02:10:53;;;;;;;9.75;2.08;;;;;;;13.30;100.00;101875.25;5282003;28;20388;-74
2021/12/31 02:13:25;;;;;;;9.35;2.55;;;;;;;13.29;100.00;101874.41;5284497;28;20373;-74
2021/12/31 02:15:55;;;;;;;9.25;1.88;;;;;;;13.32;100.00;101873.28;5276597;28;20039;-74
2021/12/31 02:18:29;;;;;;;6.65;2.03;;;;;;;13.29;100.00;101871.72;5277883;28;20102;-74
2021/12/31 02:21:02;;;;;;;6.63;2.00;;;;;;;13.30;100.00;101867.19;5283827;28;20047;-73
2021/12/31 02:23:42;;;;;;;6.03;2.03;;;;;;;13.27;100.00;101856.75;5270621;28;20546;-74
2021/12/31 02:26:13;;;;;;;10.57;2.00;;;;;;;13.20;100.00;101862.75;5272908;28;20097;-74
2021/12/31 02:28:43;;;;;;;5.95;2.28;;;;;;;13.20;100.00;101864.56;5276727;28;20099;-74
2021/12/31 02:31:14;;;;;;;7.10;1.80;;;;;;;13.11;100.00;101866.38;5276201;28;20165;-74
2021/12/31 02:33:44;;;;;;;9.32;1.92;;;;;;;13.09;100.00;101862.13;5283933;28;20496;-74
2021/12/31 02:36:15;;;;;;;9.07;2.05;;;;;;;12.99;100.00;101866.78;5283979;28;20028;-74
2021/12/31 02:38:47;;;;;;;6.68;1.65;;;;;;;12.90;100.00;101864.03;5263061;28;20448;-74
2021/12/31 02:41:18;;;;;;;8.85;2.47;;;;;;;12.86;100.00;101859.97;5264974;28;20048;-74
2021/12/31 02:43:48;;;;;;;9.15;2.35;;;;;;;12.82;100.00;101861.28;5278146;28;20029;-74
2021/12/31 02:46:19;;;;;;;5.15;2.15;;;;;;;12.84;100.00;101858.41;5270447;28;20024;-74
2021/12/31 02:48:56;;;;;;;8.65;2.60;;;;;;;12.82;100.00;101857.75;5276406;28;20389;-74
2021/12/31 02:51:28;;;;;;;11.75;2.38;;;;;;;12.82;100.00;101863.13;5267761;28;20031;-73
2021/12/31 02:54:05;;;;;;;12.55;2.50;;;;;;;12.77;100.00;101863.59;5287378;27;20031;-74
2021/12/31 02:56:36;;;;;;;11.45;2.40;;;;;;;12.71;100.00;101858.84;5274483;28;20129;-74
2021/12/31 02:59:09;;;;;;;4.88;2.22;;;;;;;12.68;100.00;101864.53;5273788;27;20055;-74
2021/12/31 03:01:40;;;;;;;9.50;2.58;;;;;;;12.69;100.00;101864.34;5286435;28;20034;-74
2021/12/31 03:04:13;;;;;;;9.13;2.45;;;;;;;12.69;100.00;101868.91;5269682;27;20024;-74
2021/12/31 03:06:57;;;;;;;8.00;2.50;;;;;;;12.71;100.00;101856.13;5279519;28;20023;-74
2021/12/31 03:09:28;;;;;;;7.95;3.15;;;;;;;12.72;100.00;101857.81;5273625;28;20024;-74
2021/12/31 03:12:00;;;;;;;6.78;2.22;;;;;;;12.73;100.00;101855.97;5286075;28;20028;-74
2021/12/31 03:14:33;;;;;;;8.73;2.63;;;;;;;12.74;100.00;101858.50;5278510;28;20062;-74
2021/12/31 03:17:05;;;;;;;9.40;2.58;;;;;;;12.76;100.00;101858.38;5266320;28;20047;-74
2021/12/31 03:19:36;;;;;;;7.25;2.25;;;;;;;12.76;100.00;101847.59;5277215;28;20422;-74
2021/12/31 03:22:08;;;;;;;9.45;2.85;;;;;;;12.77;100.00;101850.13;5268987;27;20028;-73
2021/12/31 03:24:39;;;;;;;7.50;2.47;;;;;;;12.74;100.00;101849.59;5278550;28;20481;-74
2021/12/31 03:27:09;;;;;;;6.85;2.30;;;;;;;12.75;100.00;101838.69;5286928;28;20015;-74
2021/12/31 03:29:40;;;;;;;12.48;4.00;;;;;;;12.75;100.00;101838.69;5286532;28;20032;-75
2021/12/31 03:32:10;;;;;;;10.95;2.50;;;;;;;12.73;100.00;101850.59;5286833;28;20034;-74
2021/12/31 03:34:41;;;;;;;10.50;2.65;;;;;;;12.75;100.00;101844.06;5272913;27;20472;-74
2021/12/31 03:37:11;;;;;;;6.13;2.78;;;;;;;12.73;100.00;101832.59;5286773;28;20020;-73
2021/12/31 03:39:42;;;;;;;11.18;2.80;;;;;;;12.74;100.00;101838.81;5272872;28;20036;-73
2021/12/31 03:42:15;;;;;;;5.18;2.35;;;;;;;12.68;100.00;101826.81;5286361;28;20020;-73
2021/12/31 03:44:47;;;;;;;5.05;2.33;;;;;;;12.62;100.00;101833.69;5272538;28;20031;-73
2021/12/31 03:47:17;;;;;;;6.68;2.65;;;;;;;12.56;100.00;101836.16;5286819;28;20027;-75
2021/12/31 03:49:48;;;;;;;7.97;2.25;;;;;;;12.55;100.00;101826.38;5266691;28;20016;-75
2021/12/31 03:52:18;;;;;;;10.82;3.03;;;;;;;12.48;100.00;101828.84;5274824;28;20050;-75
2021/12/31 03:54:49;;;;;;;8.35;2.67;;;;;;;12.43;100.00;101823.09;5278537;27;20031;-74
2021/12/31 03:57:19;;;;;;;8.48;2.10;;;;;;;12.34;100.00;101835.59;5266399;28;20542;-75
2021/12/31 03:59:50;;;;;;;11.98;2.53;;;;;;;12.33;100.00;101841.16;5278128;28;20137;-75
2021/12/31 04:02:20;;;;;;;10.63;2.83;;;;;;;12.34;100.00;101827.53;5265708;28;20115;-74
2021/12/31 04:04:51;;;;;;;9.27;2.30;;;;;;;12.29;100.00;101837.91;5275053;28;20027;-75
2021/12/31 04:07:21;;;;;;;10.05;2.60;;;;;;;12.19;100.00;101837.13;5275151;28;20751;-74
2021/12/31 04:09:52;;;;;;;13.85;3.00;;;;;;;12.11;100.00;101846.00;5275042;28;20032;-74
2021/12/31 04:12:23;;;;;;;7.97;2.40;;;;;;;12.12;100.00;101846.84;5269560;28;20107;-74
2021/12/31 04:14:53;;;;;;;11.02;2.50;;;;;;;12.11;100.00;101848.69;5273743;28;20095;-74
2021/12/31 04:17:24;;;;;;;9.32;2.25;;;;;;;12.09;100.00;101861.41;5279102;28;20012;-74
2021/12/31 04:19:56;;;;;;;9.73;2.80;;;;;;;12.03;100.00;101863.88;5277989;28;20080;-74
2021/12/31 04:22:29;;;;;;;8.85;2.42;;;;;;;11.97;100.00;101851.88;5264721;28;20111;-74
2021/12/31 04:25:00;;;;;;;8.70;2.42;;;;;;;11.99;100.00;101841.81;5278410;28;20019;-74
2021/12/31 04:27:30;;;;;;;6.38;2.25;;;;;;;11.93;100.00;101843.25;5273579;28;20541;-73
2021/12/31 04:30:00;;;;;;;4.43;2.10;;;;;;;11.89;100.00;101838.31;5271929;28;20035;-73
2021/12/31 04:32:31;;;;;;;5.60;2.33;;;;;;;11.85;100.00;101832.44;5285352;28;20027;-73
2021/12/31 04:35:02;;;;;;;5.43;2.20;;;;;;;11.78;100.00;101825.91;5266358;28;20023;-74
2021/12/31 04:37:33;;;;;;;6.80;2.55;;;;;;;11.76;100.00;101829.75;5264653;28;20023;-74
2021/12/31 04:40:04;;;;;;;9.70;2.40;;;;;;;11.72;100.00;101834.59;5264444;28;20024;-74
2021/12/31 04:42:35;;;;;;;6.78;2.05;;;;;;;11.76;100.00;101824.38;5264401;28;20028;-74
2021/12/31 04:45:06;;;;;;;11.02;2.10;;;;;;;11.68;100.00;101830.50;5284929;28;20019;-74
2021/12/31 04:47:37;;;;;;;6.75;2.00;;;;;;;11.63;100.00;101830.09;5284061;28;20032;-74
2021/12/31 04:50:09;;;;;;;7.28;2.15;;;;;;;11.59;100.00;101831.38;5273756;28;20028;-74
2021/12/31 04:52:39;;;;;;;5.10;2.10;;;;;;;11.66;100.00;101835.19;5281327;27;20035;-74
2021/12/31 04:55:11;;;;;;;9.25;2.00;;;;;;;11.61;100.00;101832.09;5274330;28;20024;-74
2021/12/31 04:57:46;;;;;;;8.18;2.25;;;;;;;11.55;100.00;101838.06;5264058;28;20023;-74
2021/12/31 05:00:17;;;;;;;8.55;2.28;;;;;;;11.54;100.00;101831.81;5276556;28;20023;-74
2021/12/31 05:02:48;;;;;;;6.00;1.83;;;;;;;11.59;100.00;101834.91;5284980;28;20030;-74
2021/12/31 05:05:19;;;;;;;6.93;1.90;;;;;;;11.58;100.00;101822.47;5270577;28;20020;-74
2021/12/31 05:07:49;;;;;;;6.55;1.92;;;;;;;11.58;100.00;101822.47;5266578;28;20024;-74
2021/12/31 05:10:21;;;;;;;8.18;2.38;;;;;;;11.53;100.00;101827.47;5263540;28;20028;-75
2021/12/31 05:12:55;;;;;;;7.60;2.13;;;;;;;11.51;100.00;101823.25;5272691;28;20534;-75
2021/12/31 05:15:28;;;;;;;11.02;3.25;;;;;;;11.48;100.00;101823.53;5270806;28;20026;-75
2021/12/31 05:17:58;;;;;;;7.05;2.25;;;;;;;11.50;100.00;101810.81;5284909;28;20120;-75
2021/12/31 05:20:29;;;;;;;8.77;2.10;;;;;;;11.40;100.00;101800.94;5285047;28;20028;-75
2021/12/31 05:23:00;;;;;;;5.65;2.20;;;;;;;11.38;100.00;101802.06;5285144;28;20484;-74
2021/12/31 05:25:31;;;;;;;9.43;2.08;;;;;;;11.42;100.00;101800.78;5264879;28;20024;-75
2021/12/31 05:28:01;;;;;;;7.90;2.10;;;;;;;11.40;100.00;101792.03;5263815;28;20073;-74
2021/12/31 05:30:32;;;;;;;5.78;2.10;;;;;;;11.43;100.00;101801.63;5271122;28;20096;-74
2021/12/31 05:33:03;;;;;;;2.67;1.85;;;;;;;11.44;100.00;101797.94;5282974;28;20119;-74
2021/12/31 05:35:33;;;;;;;5.70;1.80;;;;;;;11.40;100.00;101790.19;5272573;28;20035;-74
2021/12/31 05:38:04;;;;;;;7.65;1.88;;;;;;;11.41;100.00;101799.09;5268165;28;20024;-74
2021/12/31 05:40:35;;;;;;;6.60;2.17;;;;;;;11.38;100.00;101789.47;5274278;28;20020;-74
2021/12/31 05:43:06;;;;;;;5.10;2.13;;;;;;;11.36;100.00;101787.94;5270560;28;20123;-74
2021/12/31 05:45:36;;;;;;;6.15;1.88;;;;;;;11.35;100.00;101787.09;5272367;28;20104;-74
2021/12/31 05:48:07;;;;;;;6.53;2.00;;;;;;;11.45;100.00;101773.63;5282664;28;20521;-73
2021/12/31 05:50:37;;;;;;;4.50;1.90;;;;;;;11.45;100.00;101778.16;5271806;28;20056;-73
2021/12/31 05:53:08;;;;;;;4.93;1.90;;;;;;;11.48;100.00;101784.06;5273549;28;20020;-74
2021/12/31 05:55:38;;;;;;;7.18;2.22;;;;;;;11.43;100.00;101791.72;5283913;28;20476;-74
2021/12/31 05:58:09;;;;;;;6.93;1.88;;;;;;;11.44;100.00;101776.44;5270876;28;20024;-74
2021/12/31 06:00:39;;;;;;;6.65;2.20;;;;;;;11.39;100.00;101780.41;5270741;28;20423;-74
2021/12/31 06:03:10;;;;;;;6.80;2.25;;;;;;;11.35;100.00;101778.22;5284511;28;20020;-74
2021/12/31 06:05:40;;;;;;;6.78;1.92;;;;;;;11.38;100.00;101778.72;5281986;27;20020;-74
2021/12/31 06:08:11;;;;;;;5.88;1.95;;;;;;;11.40;100.00;101767.84;5266358;28;20459;-75
2021/12/31 06:10:41;;;;;;;6.70;2.45;;;;;;;11.39;100.00;101776.88;5263395;28;20039;-73
2021/12/31 06:13:12;;;;;;;6.80;2.35;;;;;;;11.41;100.00;101774.91;5274838;28;20125;-74
2021/12/31 06:15:44;;;;;;;5.70;2.42;;;;;;;11.36;100.00;101780.72;5277230;28;20028;-73
2021/12/31 06:18:15;;;;;;;4.65;1.80;;;;;;;11.39;100.00;101776.88;5279288;28;20102;-74
2021/12/31 06:20:45;;;;;;;7.60;2.10;;;;;;;11.40;100.00;101766.00;5288009;28;20455;-74
2021/12/31 06:23:16;;;;;;;7.05;1.98;;;;;;;11.44;100.00;101763.84;5288468;28;20532;-74
2021/12/31 06:25:46;;;;;;;7.38;2.00;;;;;;;11.40;100.00;101755.28;5279328;28;20028;-74
2021/12/31 06:28:16;;;;;;;2.67;1.90;;;;;;;11.36;100.00;101753.88;5280425;28;20103;-74
2021/12/31 06:30:47;;;;;;;8.13;2.22;;;;;;;11.30;100.00;101761.69;5275977;28;20424;-74
2021/12/31 06:33:17;;;;;;;4.57;1.70;;;;;;;11.22;100.00;101761.56;5274040;27;20055;-74
2021/12/31 06:35:48;;;;;;;6.95;2.25;;;;;;;11.10;100.00;101779.72;5287359;28;20092;-74
2021/12/31 06:38:18;;;;;;;6.63;2.30;;;;;;;11.00;100.00;101773.53;5286497;28;20118;-75
2021/12/31 06:40:49;;;;;;;4.07;2.13;;;;;;;10.94;100.00;101774.94;5281619;28;20024;-74
2021/12/31 06:43:19;;;;;;;13.43;2.10;;;;;;;10.86;100.00;101793.63;5286722;28;20031;-75
2021/12/31 06:45:50;;;;;;;8.38;2.28;;;;;;;10.80;100.00;101799.59;5274521;27;20030;-74
2021/12/31 06:48:20;;;;;;;5.28;2.20;;;;;;;10.78;100.00;101796.19;5280727;28;20024;-75
2021/12/31 06:50:51;;;;;;;7.30;2.30;;;;;;;10.76;100.00;101795.50;5268171;28;20165;-74
2021/12/31 06:53:21;;;;;;;7.47;2.13;;;;;;;10.68;100.00;101798.03;5269581;28;20065;-74
2021/12/31 06:55:52;;;;;;;5.30;2.15;;;;;;;10.65;100.00;101795.66;5266518;28;20609;-74
2021/12/31 06:58:22;;;;;;;5.43;2.35;;;;;;;10.62;100.00;101796.78;5276601;28;20050;-74
2021/12/31 07:00:53;;;;;;;6.30;2.33;;;;;;;10.61;100.00;101797.78;5269838;28;20031;-74
2021/12/31 07:03:24;;;;;;;7.85;3.40;;;;;;;10.54;100.00;101794.84;5266839;28;20020;-74
2021/12/31 07:05:54;;;;;;;5.65;2.15;;;;;;;10.57;100.00;101799.91;5271282;28;20023;-74
2021/12/31 07:08:25;;;;;;;3.63;1.80;;;;;;;10.58;100.00;101804.25;5274514;28;20046;-74
2021/12/31 07:10:55;;;;;;;6.30;2.03;;;;;;;10.60;100.00;101815.72;5278410;28;20073;-74
2021/12/31 07:13:26;;;;;;;6.50;1.80;;;;;;;10.67;100.00;101807.94;5279939;28;20023;-74
2021/12/31 07:15:56;;;;;;;7.43;1.90;;;;;;;10.79;100.00;101820.22;5266157;28;20453;-75
2021/12/31 07:18:27;;;;;;;3.63;1.90;;;;;;;10.84;100.00;101820.63;5280481;28;20049;-74
2021/12/31 07:20:57;;;;;;;7.47;2.17;;;;;;;10.89;100.00;101826.41;5274487;28;20083;-73
2021/12/31 07:23:27;;;;;;;5.35;3.03;;;;;;;10.99;100.00;101829.06;5273269;28;20016;-74
2021/12/31 07:25:58;;;;;;;6.10;2.30;;;;;;;11.01;100.00;101820.88;5277287;28;20031;-73
2021/12/31 07:28:28;;;;;;;5.75;2.00;;;;;;;11.14;100.00;101807.94;5277622;28;20016;-73
2021/12/31 07:31:00;;;;;;;4.78;2.00;;;;;;;11.29;100.00;101802.94;5276726;28;20499;-74
2021/12/31 07:33:30;;;;;;;5.18;1.65;;;;;;;11.37;100.00;101795.00;5272815;28;20107;-74
2021/12/31 07:36:01;;;;;;;5.40;1.80;;;;;;;11.46;100.00;101801.34;5274348;28;20020;-74
2021/12/31 07:38:34;;;;;;;3.42;1.80;;;;;;;11.47;100.00;101800.34;5285571;28;20051;-73
2021/12/31 07:41:06;;;;;;;3.53;1.70;;;;;;;11.45;100.00;101794.28;5266828;28;20028;-74
2021/12/31 07:43:37;;;;;;;8.65;1.70;;;;;;;11.43;100.00;101801.63;5279010;28;20027;-74
2021/12/31 07:46:07;;;;;;;7.50;2.28;;;;;;;11.40;100.00;101808.16;5280331;28;20040;-74
2021/12/31 07:48:38;;;;;;;3.35;1.80;;;;;;;11.42;100.00;101811.53;5286603;28;20023;-74
2021/12/31 07:51:08;;;;;;;4.50;1.92;;;;;;;11.47;100.00;101824.53;5269581;27;20027;-74
2021/12/31 07:53:39;;;;;;;5.93;2.13;;;;;;;11.44;100.00;101840.94;5286243;28;20110;-74
2021/12/31 07:56:10;;;;;;;5.32;1.75;;;;;;;11.44;100.00;101844.47;5281549;28;20496;-74
2021/12/31 07:58:40;;;;;;;7.53;2.40;;;;;;;11.43;100.00;101850.00;5277372;28;20055;-74
2021/12/31 08:01:11;;;;;;;4.15;2.30;;;;;;;11.39;100.00;101847.59;5280343;28;20035;-73
2021/12/31 08:03:41;;;;;;;6.28;2.55;;;;;;;11.40;100.00;101852.00;5265704;28;20027;-74
2021/12/31 08:06:12;;;;;;;3.15;2.20;;;;;;;11.45;100.00;101845.34;5272053;28;20487;-74
2021/12/31 08:08:42;;;;;;;8.77;2.45;;;;;;;11.44;100.00;101849.00;5271321;28;20051;-74
2021/12/31 08:11:13;;;;;;;4.03;1.90;;;;;;;11.47;100.00;101846.03;5285532;27;20028;-73
2021/12/31 08:13:43;;;;;;;8.48;2.00;;;;;;;11.52;100.00;101847.28;5272380;27;20481;-74
2021/12/31 08:16:14;;;;;;;8.25;2.20;;;;;;;11.53;100.00;101867.75;5276170;28;20028;-74
2021/12/31 08:18:44;;;;;;;5.93;2.08;;;;;;;11.54;100.00;101847.94;5278430;28;20024;-74
2021/12/31 08:21:15;;;;;;;6.57;2.63;;;;;;;11.51;100.00;101852.81;5275284;28;20334;-74
2021/12/31 08:23:45;;;;;;;5.15;2.28;;;;;;;11.53;100.00;101866.91;5272201;28;20019;-74
2021/12/31 08:26:17;;;;;;;4.40;1.75;;;;;;;11.55;100.00;101862.25;5272799;28;20062;-74
2021/12/31 08:28:48;;;;;;;7.22;2.13;;;;;;;11.56;100.00;101847.81;5284654;28;20106;-74
2021/12/31 08:31:18;;;;;;;5.70;2.33;;;;;;;11.61;100.00;101842.84;5284959;28;20404;-74
2021/12/31 08:33:49;;;;;;;7.68;1.90;;;;;;;11.58;100.00;101848.50;5272582;28;20024;-74
2021/12/31 08:36:19;;;;;;;6.35;1.83;;;;;;;11.57;100.00;101855.72;5271648;28;20088;-74
2021/12/31 08:38:50;;;;;;;5.05;1.70;;;;;;;11.58;100.00;101854.72;5274967;28;20031;-73
2021/12/31 08:41:20;;;;;;;6.28;1.95;;;;;;;11.58;100.00;101827.00;5267541;28;20020;-73
2021/12/31 08:43:51;;;;;;;9.10;2.95;;;;;;;11.58;100.00;101827.84;5275351;28;20028;-74
2021/12/31 08:46:22;;;;;;;5.50;1.90;;;;;;;11.60;100.00;101828.56;5277549;28;20122;-75
2021/12/31 08:48:53;;;;;;;3.40;1.80;;;;;;;11.65;100.00;101828.97;5276369;28;20484;-75
2021/12/31 08:51:25;;;;;;;3.53;1.60;;;;;;;11.66;100.00;101813.69;5275716;28;20039;-75
2021/12/31 08:53:56;;;;;;;5.68;1.88;;;;;;;11.64;100.00;101795.00;5274703;28;20090;-75
2021/12/31 08:56:26;;;;;;;5.00;1.95;;;;;;;11.71;100.00;101797.09;5267954;28;20147;-75
2021/12/31 08:58:57;;;;;;;4.57;2.03;;;;;;;11.81;100.00;101806.81;5281395;27;20023;-75
2021/12/31 09:01:28;;;;;;;5.65;1.85;;;;;;;11.80;100.00;101789.00;5290338;27;20023;-75
2021/12/31 09:03:58;;;;;;;3.30;1.80;;;;;;;11.85;100.00;101791.25;5297998;27;20015;-75
2021/12/31 09:06:28;;;;;;;5.70;1.73;;;;;;;11.88;100.00;101786.41;5287257;27;20031;-74
2021/12/31 09:08:59;;;;;;;7.43;1.65;;;;;;;11.97;100.00;101806.16;5288380;27;20023;-75
2021/12/31 09:11:30;;;;;;;5.70;1.90;;;;;;;11.92;100.00;101814.69;5287821;27;20126;-75
2021/12/31 09:14:01;;;;;;;3.95;1.80;;;;;;;11.93;100.00;101845.09;5293718;27;20433;-75
2021/12/31 09:16:32;;;;;;;5.63;1.80;;;;;;;11.96;100.00;101866.31;5291627;27;20106;-75
2021/12/31 09:19:02;;;;;;;3.47;1.75;;;;;;;11.98;100.00;101883.16;5290449;27;20311;-75
2021/12/31 09:21:33;;;;;;;2.50;1.58;;;;;;;11.96;100.00;101892.38;5299875;27;20071;-75
2021/12/31 09:24:03;;;;;;;4.32;1.88;;;;;;;11.94;100.00;101876.38;5297534;27;20106;-75
2021/12/31 09:26:34;;;;;;;6.20;2.00;;;;;;;11.98;100.00;101879.63;5295977;27;20488;-75
2021/12/31 09:29:04;;;;;;;4.30;2.15;;;;;;;11.96;100.00;101879.78;5296680;27;20023;-75
2021/12/31 09:31:35;;;;;;;3.92;2.05;;;;;;;11.95;100.00;101878.09;5293231;27;20548;-75
2021/12/31 09:34:05;;;;;;;3.38;1.75;;;;;;;11.96;100.00;101874.41;5294302;27;20035;-75
2021/12/31 09:36:36;;;;;;;2.10;1.30;;;;;;;11.97;100.00;101859.94;5288657;27;20480;-75
2021/12/31 09:39:07;;;;;;;2.65;1.30;;;;;;;11.99;100.00;101862.47;5290601;27;20051;-75
2021/12/31 09:41:37;;;;;;;4.05;1.90;;;;;;;12.02;100.00;101889.09;5288815;27;20064;-75
2021/12/31 09:44:10;;;;;;;5.45;1.80;;;;;;;12.06;100.00;101891.31;5294427;27;20356;-75
2021/12/31 09:46:42;;;;;;;7.53;1.80;;;;;;;12.05;100.00;101892.31;5284668;28;20546;-75
2021/12/31 09:49:12;;;;;;;4.40;1.80;;;;;;;12.13;100.00;101867.34;5284720;27;20031;-75
2021/12/31 09:51:43;;;;;;;6.43;1.40;;;;;;;12.12;100.00;101906.00;5292752;27;20027;-75
2021/12/31 09:54:14;;;;;;;8.23;1.70;;;;;;;12.10;100.00;101903.47;5292003;27;20512;-75
2021/12/31 09:56:44;;;;;;;2.95;1.63;;;;;;;12.12;100.00;101900.63;5295542;27;20027;-75
2021/12/31 09:59:17;;;;;;;2.72;1.85;;;;;;;12.07;100.00;101894.84;5293034;27;20030;-75
2021/12/31 10:01:51;;;;;;;6.47;1.67;;;;;;;12.05;100.00;101873.50;5293029;27;20464;-75
2021/12/31 10:04:22;;;;;;;2.80;1.60;;;;;;;11.99;100.00;101875.91;5283375;27;20020;-75
2021/12/31 10:07:11;;;;;;;3.03;1.67;;;;;;;12.03;100.00;101875.47;5285100;27;20042;-75
2021/12/31 10:09:43;;;;;;;9.35;1.88;;;;;;;12.07;100.00;101892.16;5291797;27;20023;-75
2021/12/31 10:12:13;;;;;;;4.32;2.00;;;;;;;12.13;100.00;101896.94;5288504;27;20027;-75
2021/12/31 10:14:44;;;;;;;8.30;2.17;;;;;;;12.11;100.00;101891.72;5299815;27;20480;-75
2021/12/31 10:17:34;;;;;;;4.38;1.88;;;;;;;12.20;100.00;101903.41;5286865;27;20024;-75
2021/12/31 10:20:05;;;;;;;8.35;2.60;;;;;;;12.23;100.00;101899.56;5294772;27;20023;-75
2021/12/31 10:22:36;;;;;;;6.25;1.90;;;;;;;12.29;100.00;101893.56;5290397;27;20019;-75
2021/12/31 10:25:16;;;;;;;4.68;2.15;;;;;;;12.39;100.00;101883.59;5294011;27;20404;-75
2021/12/31 10:27:50;;;;;;;5.15;2.30;;;;;;;12.48;100.00;101881.81;5291256;27;20380;-75
2021/12/31 10:30:23;;;;;;;4.10;2.15;;;;;;;12.57;100.00;101894.38;5291190;27;20508;-75
2021/12/31 10:32:53;;;;;;;8.35;2.95;;;;;;;12.56;100.00;101888.16;5294320;27;20045;-75
2021/12/31 10:35:24;;;;;;;3.92;1.90;;;;;;;12.62;100.00;101897.44;5294377;27;20023;-75
2021/12/31 10:37:57;;;;;;;6.07;2.25;;;;;;;12.69;100.00;101909.28;5294527;27;20031;-75
2021/12/31 10:40:31;;;;;;;5.45;1.75;;;;;;;12.85;100.00;101893.28;5290332;27;20111;-75
2021/12/31 10:43:22;;;;;;;5.28;1.50;;;;;;;13.14;100.00;101898.38;5286889;27;20127;-75
2021/12/31 10:46:05;;;;;;;7.03;1.60;;;;;;;13.40;100.00;101889.47;5292445;27;20090;-75
2021/12/31 10:48:48;;;;;;;9.50;2.13;;;;;;;13.44;100.00;101886.31;5295826;27;20031;-75
2021/12/31 10:51:35;;;;;;;4.07;1.20;;;;;;;13.45;100.00;101885.31;5294530;27;20030;-75
2021/12/31 10:54:19;;;;;;;1.77;1.40;;;;;;;13.41;100.00;101889.34;5286471;27;20384;-75
2021/12/31 10:56:49;;;;;;;4.30;1.80;;;;;;;13.43;100.00;101881.06;5298481;27;20018;-75
2021/12/31 10:59:20;;;;;;;6.63;2.45;;;;;;;13.23;100.00;101885.00;5298046;27;20081;-75
2021/12/31 11:01:51;;;;;;;3.53;1.65;;;;;;;13.24;100.00;101890.22;5297799;27;20019;-75
2021/12/31 11:04:22;;;;;;;3.97;1.98;;;;;;;13.18;100.00;101898.91;5290199;27;20159;-75
2021/12/31 11:06:53;;;;;;;6.18;1.70;;;;;;;13.19;100.00;101893.34;5290317;27;20488;-75
2021/12/31 11:09:24;;;;;;;6.40;2.38;;;;;;;13.14;100.00;101903.75;5288530;27;20024;-75
2021/12/31 11:11:57;;;;;;;6.88;2.30;;;;;;;13.28;100.00;101915.00;5286673;27;20020;-75
2021/12/31 11:14:28;;;;;;;4.85;2.17;;;;;;;13.31;100.00;101901.22;5295129;27;20035;-74
2021/12/31 11:16:58;;;;;;;4.63;1.92;;;;;;;13.24;100.00;101881.28;5294202;27;20024;-75
2021/12/31 11:19:29;;;;;;;6.70;2.33;;;;;;;13.21;100.00;101902.19;5299324;27;20027;-75
2021/12/31 11:22:00;;;;;;;5.68;2.85;;;;;;;13.20;100.00;101889.69;5295413;27;20389;-75
2021/12/31 11:24:34;;;;;;;5.90;2.35;;;;;;;13.14;100.00;101881.38;5296039;27;20011;-75
2021/12/31 11:27:45;;;;;;;4.20;2.20;;;;;;;13.20;100.00;101881.59;5290079;27;20497;-75
2021/12/31 11:30:27;;;;;;;9.02;3.90;;;;;;;13.15;100.00;101872.28;5290318;27;20114;-75
2021/12/31 11:32:59;;;;;;;6.25;2.88;;;;;;;13.24;100.00;101859.75;5287111;27;20075;-75
2021/12/31 11:35:34;;;;;;;5.63;2.10;;;;;;;13.12;100.00;101862.66;5295102;27;20522;-75
2021/12/31 11:38:11;;;;;;;10.63;3.03;;;;;;;13.12;100.00;101870.75;5299428;27;20034;-75
2021/12/31 11:40:49;;;;;;;7.13;2.42;;;;;;;13.08;100.00;101847.81;5294742;27;20380;-75